TimePST,TemperatureF,Dew PointF,Humidity,Sea Level PressureIn,VisibilityMPH,Wind Direction,Wind SpeedMPH,Gust SpeedMPH,PrecipitationIn,Events,Conditions,WindDirDegrees,DateUTC
12:56 AM,46.9,43.0,86,30.05,10.0,Calm,Calm,-,N/A,,Clear,0,2013-02-18 08:56:00
1:56 AM,46.0,42.1,86,30.05,10.0,Calm,Calm,-,N/A,,Clear,0,2013-02-18 09:56:00
2:56 AM,45.0,41.0,86,30.04,10.0,Calm,Calm,-,N/A,,Clear,0,2013-02-18 10:56:00
3:56 AM,45.0,41.0,86,30.03,10.0,Calm,Calm,-,N/A,,Partly Cloudy,0,2013-02-18 11:56:00
4:17 AM,44.6,41.0,87,30.02,10.0,South,3.5,-,N/A,,Mostly Cloudy,190,2013-02-18 12:17:00
4:56 AM,45.0,41.0,86,30.04,10.0,Calm,Calm,-,N/A,,Overcast,0,2013-02-18 12:56:00
5:56 AM,46.0,43.0,89,30.05,10.0,Calm,Calm,-,N/A,,Overcast,0,2013-02-18 13:56:00
6:13 AM,44.6,42.8,93,30.04,10.0,Calm,Calm,-,N/A,,Overcast,0,2013-02-18 14:13:00
6:56 AM,46.0,43.0,89,30.05,10.0,Calm,Calm,-,N/A,,Overcast,0,2013-02-18 14:56:00
7:56 AM,48.0,44.1,86,30.06,7.0,Calm,Calm,-,N/A,,Overcast,0,2013-02-18 15:56:00
8:56 AM,50.0,42.1,74,30.08,10.0,WSW,3.5,-,N/A,,Overcast,250,2013-02-18 16:56:00
9:56 AM,50.0,42.1,74,30.08,10.0,NW,4.6,-,N/A,,Overcast,310,2013-02-18 17:56:00
10:56 AM,52.0,39.9,63,30.08,10.0,West,8.1,-,N/A,,Overcast,270,2013-02-18 18:56:00
11:56 AM,53.1,39.0,59,30.07,10.0,West,8.1,-,N/A,,Overcast,260,2013-02-18 19:56:00
12:56 PM,52.0,37.9,59,30.05,10.0,WSW,9.2,-,N/A,,Overcast,240,2013-02-18 20:56:00
1:56 PM,53.1,37.9,57,30.02,10.0,Calm,Calm,-,N/A,,Mostly Cloudy,0,2013-02-18 21:56:00
2:56 PM,53.1,36.0,52,30.02,10.0,West,8.1,-,N/A,,Overcast,260,2013-02-18 22:56:00
3:56 PM,52.0,36.0,54,30.02,10.0,WSW,10.4,-,N/A,,Overcast,250,2013-02-18 23:56:00
4:56 PM,52.0,36.0,54,30.02,10.0,West,5.8,-,N/A,,Overcast,280,2013-02-19 00:56:00
5:56 PM,50.0,39.0,66,30.02,10.0,WSW,5.8,-,N/A,,Overcast,240,2013-02-19 01:56:00
6:56 PM,50.0,39.9,68,30.02,10.0,WSW,3.5,-,N/A,,Overcast,240,2013-02-19 02:56:00
7:56 PM,50.0,37.9,63,30.02,10.0,WSW,3.5,-,N/A,,Overcast,240,2013-02-19 03:56:00
8:56 PM,50.0,37.9,63,30.02,10.0,West,3.5,-,N/A,,Overcast,270,2013-02-19 04:56:00
9:56 PM,48.9,39.0,69,30.04,10.0,Variable,3.5,-,N/A,,Overcast,0,2013-02-19 05:56:00
10:56 PM,48.9,39.0,69,30.02,10.0,SW,3.5,-,N/A,,Mostly Cloudy,230,2013-02-19 06:56:00
11:56 PM,48.9,39.0,69,30.01,10.0,Calm,Calm,-,N/A,,Overcast,0,2013-02-19 07:56:00